1MA2 weather

UMASS Memorial Medical Center-Univ Campus Heliport
Worcester, Massachusetts, United States

Public forecast

Using degrees Fahrenheit for public forecast. Weather courtesy of forecast.io.

METAR (pilot weather report)

Closest report is Worcester Regional Airport, 5.2 nm (9.6 km) W. Retrieved 2019/09/21 17:54 UTC (20 minutes ago):

KORH 211754Z 17006KT 10SM CLR 25/16 A3019 RMK AO2 SLP221 T02500156 10256 20178 58016

TAF (pilot weather forecast)

Closest forecast is Worcester Regional Airport, 5.2 nm (9.6 km) W. Retrieved 2019/09/21 18:22 UTC (0 seconds ago):

TAF KORH 211720Z 2118/2218 VRB03KT P6SM SKC FM211900 22004KT P6SM SKC